sensor_id;sensor_type;location;lat;lon;timestamp;P1;durP1;ratioP1;P2;durP2;ratioP2
46717;SDS011;32448;44.960;-0.698;2022-12-18T00:01:57;88.45;;;50.20;;
46717;SDS011;32448;44.960;-0.698;2022-12-18T00:04:28;88.07;;;46.75;;
46717;SDS011;32448;44.960;-0.698;2022-12-18T00:06:55;95.20;;;51.38;;
46717;SDS011;32448;44.960;-0.698;2022-12-18T00:12:05;100.70;;;53.75;;
46717;SDS011;32448;44.960;-0.698;2022-12-18T00:14:44;106.57;;;55.88;;
46717;SDS011;32448;44.960;-0.698;2022-12-18T00:17:12;103.65;;;56.38;;
46717;SDS011;32448;44.960;-0.698;2022-12-18T00:19:39;116.88;;;61.78;;
46717;SDS011;32448;44.960;-0.698;2022-12-18T00:22:07;111.55;;;57.13;;
46717;SDS011;32448;44.960;-0.698;2022-12-18T00:24:35;112.00;;;60.10;;
46717;SDS011;32448;44.960;-0.698;2022-12-18T00:27:02;109.70;;;60.08;;
46717;SDS011;32448;44.960;-0.698;2022-12-18T00:29:30;107.90;;;56.30;;
46717;SDS011;32448;44.960;-0.698;2022-12-18T00:31:58;102.90;;;57.13;;
46717;SDS011;32448;44.960;-0.698;2022-12-18T00:34:26;110.95;;;59.70;;
46717;SDS011;32448;44.960;-0.698;2022-12-18T00:39:24;116.78;;;63.40;;
46717;SDS011;32448;44.960;-0.698;2022-12-18T00:41:51;108.18;;;56.28;;
46717;SDS011;32448;44.960;-0.698;2022-12-18T00:44:37;107.25;;;58.05;;
46717;SDS011;32448;44.960;-0.698;2022-12-18T00:47:07;104.50;;;55.85;;
46717;SDS011;32448;44.960;-0.698;2022-12-18T00:49:34;103.53;;;55.25;;
46717;SDS011;32448;44.960;-0.698;2022-12-18T00:52:02;97.18;;;51.97;;
46717;SDS011;32448;44.960;-0.698;2022-12-18T00:54:29;100.35;;;53.25;;
46717;SDS011;32448;44.960;-0.698;2022-12-18T00:56:56;94.57;;;52.45;;
46717;SDS011;32448;44.960;-0.698;2022-12-18T00:59:24;96.28;;;51.28;;
46717;SDS011;32448;44.960;-0.698;2022-12-18T01:01:51;92.72;;;49.83;;
46717;SDS011;32448;44.960;-0.698;2022-12-18T01:04:19;87.95;;;47.97;;
46717;SDS011;32448;44.960;-0.698;2022-12-18T01:06:46;88.10;;;48.92;;
46717;SDS011;32448;44.960;-0.698;2022-12-18T01:09:15;81.32;;;43.60;;
46717;SDS011;32448;44.960;-0.698;2022-12-18T01:11:42;75.38;;;42.17;;
46717;SDS011;32448;44.960;-0.698;2022-12-18T01:14:10;81.15;;;44.47;;
46717;SDS011;32448;44.960;-0.698;2022-12-18T01:16:37;79.32;;;42.75;;
46717;SDS011;32448;44.960;-0.698;2022-12-18T01:19:05;76.68;;;42.35;;
46717;SDS011;32448;44.960;-0.698;2022-12-18T01:21:32;79.72;;;45.08;;
46717;SDS011;32448;44.960;-0.698;2022-12-18T01:24:03;82.20;;;45.35;;
46717;SDS011;32448;44.960;-0.698;2022-12-18T01:26:30;77.57;;;45.35;;
46717;SDS011;32448;44.960;-0.698;2022-12-18T01:28:58;80.80;;;46.08;;
46717;SDS011;32448;44.960;-0.698;2022-12-18T01:31:27;83.82;;;45.25;;
46717;SDS011;32448;44.960;-0.698;2022-12-18T01:33:57;86.63;;;47.08;;
46717;SDS011;32448;44.960;-0.698;2022-12-18T01:36:29;86.05;;;46.15;;
46717;SDS011;32448;44.960;-0.698;2022-12-18T01:39:02;85.30;;;46.30;;
46717;SDS011;32448;44.960;-0.698;2022-12-18T01:41:32;90.55;;;46.50;;
46717;SDS011;32448;44.960;-0.698;2022-12-18T01:45:05;83.13;;;45.85;;
46717;SDS011;32448;44.960;-0.698;2022-12-18T01:50:08;87.63;;;47.55;;
46717;SDS011;32448;44.960;-0.698;2022-12-18T01:52:38;86.88;;;47.22;;
46717;SDS011;32448;44.960;-0.698;2022-12-18T01:55:10;88.93;;;47.55;;
46717;SDS011;32448;44.960;-0.698;2022-12-18T01:57:39;90.85;;;49.63;;
46717;SDS011;32448;44.960;-0.698;2022-12-18T02:00:11;91.35;;;47.25;;
46717;SDS011;32448;44.960;-0.698;2022-12-18T02:02:42;92.50;;;47.30;;
46717;SDS011;32448;44.960;-0.698;2022-12-18T02:05:12;89.57;;;45.58;;
46717;SDS011;32448;44.960;-0.698;2022-12-18T02:13:36;94.38;;;49.65;;
46717;SDS011;32448;44.960;-0.698;2022-12-18T02:16:33;90.72;;;47.20;;
46717;SDS011;32448;44.960;-0.698;2022-12-18T02:19:15;88.43;;;47.55;;
46717;SDS011;32448;44.960;-0.698;2022-12-18T02:22:11;86.93;;;44.70;;
46717;SDS011;32448;44.960;-0.698;2022-12-18T02:25:06;82.93;;;43.55;;
46717;SDS011;32448;44.960;-0.698;2022-12-18T02:27:59;82.93;;;46.33;;
46717;SDS011;32448;44.960;-0.698;2022-12-18T02:30:30;85.47;;;44.90;;
46717;SDS011;32448;44.960;-0.698;2022-12-18T02:33:00;87.28;;;46.40;;
46717;SDS011;32448;44.960;-0.698;2022-12-18T02:35:33;85.10;;;43.73;;
46717;SDS011;32448;44.960;-0.698;2022-12-18T02:38:03;82.30;;;44.47;;
46717;SDS011;32448;44.960;-0.698;2022-12-18T02:40:34;74.43;;;40.72;;
46717;SDS011;32448;44.960;-0.698;2022-12-18T02:43:12;81.70;;;42.58;;
46717;SDS011;32448;44.960;-0.698;2022-12-18T02:45:48;76.43;;;42.47;;
46717;SDS011;32448;44.960;-0.698;2022-12-18T02:48:21;79.43;;;42.05;;
46717;SDS011;32448;44.960;-0.698;2022-12-18T02:53:43;86.15;;;42.92;;
46717;SDS011;32448;44.960;-0.698;2022-12-18T02:56:30;68.72;;;39.63;;
46717;SDS011;32448;44.960;-0.698;2022-12-18T02:59:06;69.28;;;37.60;;
46717;SDS011;32448;44.960;-0.698;2022-12-18T03:04:26;62.65;;;34.22;;
46717;SDS011;32448;44.960;-0.698;2022-12-18T03:06:59;54.05;;;31.50;;
46717;SDS011;32448;44.960;-0.698;2022-12-18T03:09:36;53.95;;;30.30;;
46717;SDS011;32448;44.960;-0.698;2022-12-18T03:12:14;56.30;;;31.15;;
46717;SDS011;32448;44.960;-0.698;2022-12-18T03:14:55;55.80;;;29.08;;
46717;SDS011;32448;44.960;-0.698;2022-12-18T03:17:49;50.33;;;26.95;;
46717;SDS011;32448;44.960;-0.698;2022-12-18T03:20:24;46.58;;;27.65;;
46717;SDS011;32448;44.960;-0.698;2022-12-18T03:22:57;48.22;;;26.95;;
46717;SDS011;32448;44.960;-0.698;2022-12-18T03:25:29;47.47;;;26.50;;
46717;SDS011;32448;44.960;-0.698;2022-12-18T03:28:00;49.75;;;27.08;;
46717;SDS011;32448;44.960;-0.698;2022-12-18T03:30:32;48.08;;;25.60;;
46717;SDS011;32448;44.960;-0.698;2022-12-18T03:33:08;46.72;;;26.60;;
46717;SDS011;32448;44.960;-0.698;2022-12-18T03:35:46;53.40;;;26.95;;
46717;SDS011;32448;44.960;-0.698;2022-12-18T03:38:17;47.08;;;26.50;;
46717;SDS011;32448;44.960;-0.698;2022-12-18T03:40:50;48.17;;;26.48;;
46717;SDS011;32448;44.960;-0.698;2022-12-18T03:46:02;45.40;;;24.20;;
46717;SDS011;32448;44.960;-0.698;2022-12-18T03:48:38;42.45;;;24.10;;
46717;SDS011;32448;44.960;-0.698;2022-12-18T03:51:22;50.40;;;23.80;;
46717;SDS011;32448;44.960;-0.698;2022-12-18T03:54:02;44.65;;;24.40;;
46717;SDS011;32448;44.960;-0.698;2022-12-18T03:56:42;46.03;;;23.88;;
46717;SDS011;32448;44.960;-0.698;2022-12-18T03:59:15;50.88;;;25.80;;
46717;SDS011;32448;44.960;-0.698;2022-12-18T04:01:47;48.55;;;25.00;;
46717;SDS011;32448;44.960;-0.698;2022-12-18T04:04:20;54.85;;;27.52;;
46717;SDS011;32448;44.960;-0.698;2022-12-18T04:06:49;53.80;;;27.15;;
46717;SDS011;32448;44.960;-0.698;2022-12-18T04:09:19;52.13;;;28.20;;
46717;SDS011;32448;44.960;-0.698;2022-12-18T04:11:48;43.80;;;25.13;;
46717;SDS011;32448;44.960;-0.698;2022-12-18T04:14:15;46.00;;;24.92;;
46717;SDS011;32448;44.960;-0.698;2022-12-18T04:16:47;47.95;;;24.67;;
46717;SDS011;32448;44.960;-0.698;2022-12-18T04:19:18;45.55;;;24.42;;
46717;SDS011;32448;44.960;-0.698;2022-12-18T04:21:49;57.25;;;26.33;;
46717;SDS011;32448;44.960;-0.698;2022-12-18T04:24:16;56.38;;;28.00;;
46717;SDS011;32448;44.960;-0.698;2022-12-18T04:26:53;51.33;;;27.13;;
46717;SDS011;32448;44.960;-0.698;2022-12-18T04:29:24;54.95;;;28.02;;
46717;SDS011;32448;44.960;-0.698;2022-12-18T04:31:51;48.60;;;26.90;;
46717;SDS011;32448;44.960;-0.698;2022-12-18T04:34:19;47.67;;;24.60;;
46717;SDS011;32448;44.960;-0.698;2022-12-18T04:36:51;49.25;;;26.10;;
46717;SDS011;32448;44.960;-0.698;2022-12-18T04:39:19;54.35;;;27.88;;
46717;SDS011;32448;44.960;-0.698;2022-12-18T04:41:49;51.55;;;26.67;;
46717;SDS011;32448;44.960;-0.698;2022-12-18T04:44:16;50.22;;;25.08;;
46717;SDS011;32448;44.960;-0.698;2022-12-18T04:46:44;47.35;;;24.02;;
46717;SDS011;32448;44.960;-0.698;2022-12-18T04:49:12;43.72;;;24.10;;
46717;SDS011;32448;44.960;-0.698;2022-12-18T04:51:39;44.97;;;23.75;;
46717;SDS011;32448;44.960;-0.698;2022-12-18T04:54:07;47.70;;;24.73;;
46717;SDS011;32448;44.960;-0.698;2022-12-18T04:56:34;43.28;;;23.58;;
46717;SDS011;32448;44.960;-0.698;2022-12-18T04:59:02;39.85;;;22.75;;
46717;SDS011;32448;44.960;-0.698;2022-12-18T05:01:29;44.22;;;24.17;;
46717;SDS011;32448;44.960;-0.698;2022-12-18T05:04:01;39.15;;;21.40;;
46717;SDS011;32448;44.960;-0.698;2022-12-18T05:06:29;40.92;;;22.45;;
46717;SDS011;32448;44.960;-0.698;2022-12-18T05:08:57;42.80;;;22.70;;
46717;SDS011;32448;44.960;-0.698;2022-12-18T05:11:24;47.60;;;22.65;;
46717;SDS011;32448;44.960;-0.698;2022-12-18T05:13:54;41.10;;;21.73;;
46717;SDS011;32448;44.960;-0.698;2022-12-18T05:16:24;35.20;;;20.20;;
46717;SDS011;32448;44.960;-0.698;2022-12-18T05:18:53;36.53;;;20.00;;
46717;SDS011;32448;44.960;-0.698;2022-12-18T05:21:21;36.35;;;21.10;;
46717;SDS011;32448;44.960;-0.698;2022-12-18T05:23:49;37.60;;;20.17;;
46717;SDS011;32448;44.960;-0.698;2022-12-18T05:26:17;35.78;;;19.23;;
46717;SDS011;32448;44.960;-0.698;2022-12-18T05:28:45;36.92;;;20.77;;
46717;SDS011;32448;44.960;-0.698;2022-12-18T05:31:13;35.03;;;19.60;;
46717;SDS011;32448;44.960;-0.698;2022-12-18T05:33:41;35.80;;;20.50;;
46717;SDS011;32448;44.960;-0.698;2022-12-18T05:36:10;34.50;;;19.38;;
46717;SDS011;32448;44.960;-0.698;2022-12-18T05:38:38;34.17;;;19.27;;
46717;SDS011;32448;44.960;-0.698;2022-12-18T05:41:06;34.47;;;18.05;;
46717;SDS011;32448;44.960;-0.698;2022-12-18T05:43:35;29.58;;;17.63;;
46717;SDS011;32448;44.960;-0.698;2022-12-18T05:46:07;33.97;;;18.73;;
46717;SDS011;32448;44.960;-0.698;2022-12-18T05:48:38;31.52;;;17.60;;
46717;SDS011;32448;44.960;-0.698;2022-12-18T05:51:07;34.47;;;18.75;;
46717;SDS011;32448;44.960;-0.698;2022-12-18T05:53:37;36.13;;;18.92;;
46717;SDS011;32448;44.960;-0.698;2022-12-18T05:56:07;31.27;;;17.73;;
46717;SDS011;32448;44.960;-0.698;2022-12-18T05:58:36;28.98;;;16.95;;
46717;SDS011;32448;44.960;-0.698;2022-12-18T06:01:17;31.55;;;16.67;;
46717;SDS011;32448;44.960;-0.698;2022-12-18T06:03:54;32.30;;;16.73;;
46717;SDS011;32448;44.960;-0.698;2022-12-18T06:06:23;32.80;;;17.02;;
46717;SDS011;32448;44.960;-0.698;2022-12-18T06:08:55;33.40;;;17.92;;
46717;SDS011;32448;44.960;-0.698;2022-12-18T06:11:24;33.47;;;18.02;;
46717;SDS011;32448;44.960;-0.698;2022-12-18T06:13:53;33.22;;;18.02;;
46717;SDS011;32448;44.960;-0.698;2022-12-18T06:16:25;35.55;;;18.45;;
46717;SDS011;32448;44.960;-0.698;2022-12-18T06:18:57;35.92;;;18.55;;
46717;SDS011;32448;44.960;-0.698;2022-12-18T06:21:26;37.45;;;18.63;;
46717;SDS011;32448;44.960;-0.698;2022-12-18T06:23:54;38.75;;;19.73;;
46717;SDS011;32448;44.960;-0.698;2022-12-18T06:26:23;35.95;;;18.38;;
46717;SDS011;32448;44.960;-0.698;2022-12-18T06:28:54;32.92;;;18.65;;
46717;SDS011;32448;44.960;-0.698;2022-12-18T06:31:22;33.13;;;18.50;;
46717;SDS011;32448;44.960;-0.698;2022-12-18T06:33:49;33.13;;;18.92;;
46717;SDS011;32448;44.960;-0.698;2022-12-18T06:36:17;33.25;;;17.35;;
46717;SDS011;32448;44.960;-0.698;2022-12-18T06:38:45;36.33;;;19.00;;
46717;SDS011;32448;44.960;-0.698;2022-12-18T06:41:17;31.00;;;17.55;;
46717;SDS011;32448;44.960;-0.698;2022-12-18T06:43:47;30.60;;;17.40;;
46717;SDS011;32448;44.960;-0.698;2022-12-18T06:46:14;32.58;;;17.95;;
46717;SDS011;32448;44.960;-0.698;2022-12-18T06:48:42;29.55;;;16.23;;
46717;SDS011;32448;44.960;-0.698;2022-12-18T06:51:09;29.10;;;16.88;;
46717;SDS011;32448;44.960;-0.698;2022-12-18T06:53:39;33.83;;;17.75;;
46717;SDS011;32448;44.960;-0.698;2022-12-18T06:56:07;32.35;;;17.27;;
46717;SDS011;32448;44.960;-0.698;2022-12-18T06:58:37;30.38;;;16.52;;
46717;SDS011;32448;44.960;-0.698;2022-12-18T07:01:06;31.88;;;15.95;;
46717;SDS011;32448;44.960;-0.698;2022-12-18T07:03:36;34.03;;;18.83;;
46717;SDS011;32448;44.960;-0.698;2022-12-18T07:06:05;31.95;;;16.15;;
46717;SDS011;32448;44.960;-0.698;2022-12-18T07:08:33;32.58;;;17.38;;
46717;SDS011;32448;44.960;-0.698;2022-12-18T07:11:02;28.80;;;15.93;;
46717;SDS011;32448;44.960;-0.698;2022-12-18T07:13:31;29.90;;;16.10;;
46717;SDS011;32448;44.960;-0.698;2022-12-18T07:16:08;30.48;;;16.33;;
46717;SDS011;32448;44.960;-0.698;2022-12-18T07:18:47;27.80;;;14.68;;
46717;SDS011;32448;44.960;-0.698;2022-12-18T07:21:16;30.58;;;15.43;;
46717;SDS011;32448;44.960;-0.698;2022-12-18T07:23:45;26.70;;;14.85;;
46717;SDS011;32448;44.960;-0.698;2022-12-18T07:26:15;24.67;;;14.52;;
46717;SDS011;32448;44.960;-0.698;2022-12-18T07:28:44;24.02;;;13.60;;
46717;SDS011;32448;44.960;-0.698;2022-12-18T07:31:13;23.15;;;13.45;;
46717;SDS011;32448;44.960;-0.698;2022-12-18T07:33:44;26.20;;;14.50;;
46717;SDS011;32448;44.960;-0.698;2022-12-18T07:36:12;25.02;;;13.90;;
46717;SDS011;32448;44.960;-0.698;2022-12-18T07:38:40;27.20;;;15.32;;
46717;SDS011;32448;44.960;-0.698;2022-12-18T07:41:09;26.35;;;13.60;;
46717;SDS011;32448;44.960;-0.698;2022-12-18T07:43:38;25.75;;;14.32;;
46717;SDS011;32448;44.960;-0.698;2022-12-18T07:46:10;31.08;;;15.65;;
46717;SDS011;32448;44.960;-0.698;2022-12-18T07:48:41;26.20;;;14.50;;
46717;SDS011;32448;44.960;-0.698;2022-12-18T07:51:11;26.08;;;14.73;;
46717;SDS011;32448;44.960;-0.698;2022-12-18T07:53:39;26.63;;;14.07;;
46717;SDS011;32448;44.960;-0.698;2022-12-18T07:56:10;23.05;;;13.43;;
46717;SDS011;32448;44.960;-0.698;2022-12-18T07:58:56;26.67;;;14.40;;
46717;SDS011;32448;44.960;-0.698;2022-12-18T08:01:24;23.38;;;13.00;;
46717;SDS011;32448;44.960;-0.698;2022-12-18T08:03:52;24.10;;;13.30;;
46717;SDS011;32448;44.960;-0.698;2022-12-18T08:06:20;21.42;;;12.63;;
46717;SDS011;32448;44.960;-0.698;2022-12-18T08:08:53;25.52;;;14.07;;
46717;SDS011;32448;44.960;-0.698;2022-12-18T08:11:23;26.48;;;14.00;;
46717;SDS011;32448;44.960;-0.698;2022-12-18T08:13:52;23.77;;;13.05;;
46717;SDS011;32448;44.960;-0.698;2022-12-18T08:16:21;28.60;;;15.73;;
46717;SDS011;32448;44.960;-0.698;2022-12-18T08:18:49;29.63;;;15.82;;
46717;SDS011;32448;44.960;-0.698;2022-12-18T08:21:19;26.35;;;14.93;;
46717;SDS011;32448;44.960;-0.698;2022-12-18T08:23:50;30.50;;;16.27;;
46717;SDS011;32448;44.960;-0.698;2022-12-18T08:26:18;31.55;;;16.00;;
46717;SDS011;32448;44.960;-0.698;2022-12-18T08:28:50;28.02;;;15.02;;
46717;SDS011;32448;44.960;-0.698;2022-12-18T08:31:18;26.67;;;15.20;;
46717;SDS011;32448;44.960;-0.698;2022-12-18T08:33:49;29.55;;;16.45;;
46717;SDS011;32448;44.960;-0.698;2022-12-18T08:36:20;29.05;;;16.00;;
46717;SDS011;32448;44.960;-0.698;2022-12-18T08:38:50;31.73;;;17.50;;
46717;SDS011;32448;44.960;-0.698;2022-12-18T08:41:20;34.03;;;17.90;;
46717;SDS011;32448;44.960;-0.698;2022-12-18T08:43:47;32.97;;;17.38;;
46717;SDS011;32448;44.960;-0.698;2022-12-18T08:46:35;35.40;;;18.63;;
46717;SDS011;32448;44.960;-0.698;2022-12-18T08:49:05;35.03;;;18.77;;
46717;SDS011;32448;44.960;-0.698;2022-12-18T08:51:34;33.85;;;17.38;;
46717;SDS011;32448;44.960;-0.698;2022-12-18T08:54:02;36.72;;;18.05;;
46717;SDS011;32448;44.960;-0.698;2022-12-18T08:56:32;37.40;;;19.10;;
46717;SDS011;32448;44.960;-0.698;2022-12-18T08:59:00;39.58;;;19.65;;
46717;SDS011;32448;44.960;-0.698;2022-12-18T09:01:28;43.67;;;21.10;;
46717;SDS011;32448;44.960;-0.698;2022-12-18T09:03:56;40.45;;;19.67;;
46717;SDS011;32448;44.960;-0.698;2022-12-18T09:06:24;39.20;;;19.52;;
46717;SDS011;32448;44.960;-0.698;2022-12-18T09:08:52;35.75;;;18.88;;
46717;SDS011;32448;44.960;-0.698;2022-12-18T09:11:21;32.42;;;17.73;;
46717;SDS011;32448;44.960;-0.698;2022-12-18T09:13:54;77.03;;;18.98;;
46717;SDS011;32448;44.960;-0.698;2022-12-18T09:16:23;48.00;;;18.60;;
46717;SDS011;32448;44.960;-0.698;2022-12-18T09:18:57;37.28;;;18.67;;
46717;SDS011;32448;44.960;-0.698;2022-12-18T09:21:29;40.75;;;17.42;;
46717;SDS011;32448;44.960;-0.698;2022-12-18T09:24:02;34.30;;;17.27;;
46717;SDS011;32448;44.960;-0.698;2022-12-18T09:26:33;32.80;;;16.80;;
46717;SDS011;32448;44.960;-0.698;2022-12-18T09:29:00;37.20;;;17.33;;
46717;SDS011;32448;44.960;-0.698;2022-12-18T09:31:29;34.28;;;18.08;;
46717;SDS011;32448;44.960;-0.698;2022-12-18T09:33:56;38.22;;;20.05;;
46717;SDS011;32448;44.960;-0.698;2022-12-18T09:36:24;41.17;;;21.20;;
46717;SDS011;32448;44.960;-0.698;2022-12-18T09:38:51;68.13;;;20.33;;
46717;SDS011;32448;44.960;-0.698;2022-12-18T09:44:25;42.35;;;21.52;;
46717;SDS011;32448;44.960;-0.698;2022-12-18T09:47:12;38.38;;;19.48;;
46717;SDS011;32448;44.960;-0.698;2022-12-18T09:49:45;42.08;;;20.92;;
46717;SDS011;32448;44.960;-0.698;2022-12-18T09:52:19;46.28;;;21.85;;
46717;SDS011;32448;44.960;-0.698;2022-12-18T09:54:53;40.10;;;21.17;;
46717;SDS011;32448;44.960;-0.698;2022-12-18T09:57:26;42.83;;;22.48;;
46717;SDS011;32448;44.960;-0.698;2022-12-18T09:59:59;48.97;;;25.02;;
46717;SDS011;32448;44.960;-0.698;2022-12-18T10:02:36;46.78;;;22.27;;
46717;SDS011;32448;44.960;-0.698;2022-12-18T10:05:10;47.28;;;23.00;;
46717;SDS011;32448;44.960;-0.698;2022-12-18T10:18:38;36.70;;;18.45;;
46717;SDS011;32448;44.960;-0.698;2022-12-18T10:21:18;30.48;;;16.70;;
46717;SDS011;32448;44.960;-0.698;2022-12-18T10:27:16;31.30;;;17.20;;
46717;SDS011;32448;44.960;-0.698;2022-12-18T10:29:48;26.42;;;14.90;;
46717;SDS011;32448;44.960;-0.698;2022-12-18T10:32:17;29.90;;;15.98;;
46717;SDS011;32448;44.960;-0.698;2022-12-18T10:37:26;22.38;;;12.93;;
46717;SDS011;32448;44.960;-0.698;2022-12-18T10:40:15;27.83;;;13.65;;
46717;SDS011;32448;44.960;-0.698;2022-12-18T10:43:22;23.40;;;12.88;;
46717;SDS011;32448;44.960;-0.698;2022-12-18T10:45:42;23.63;;;12.60;;
46717;SDS011;32448;44.960;-0.698;2022-12-18T10:48:29;23.50;;;11.50;;
46717;SDS011;32448;44.960;-0.698;2022-12-18T10:50:57;23.30;;;11.98;;
46717;SDS011;32448;44.960;-0.698;2022-12-18T10:53:38;21.27;;;10.55;;
46717;SDS011;32448;44.960;-0.698;2022-12-18T10:56:08;18.90;;;10.70;;
46717;SDS011;32448;44.960;-0.698;2022-12-18T10:58:38;16.60;;;9.10;;
46717;SDS011;32448;44.960;-0.698;2022-12-18T11:01:15;13.63;;;8.70;;
46717;SDS011;32448;44.960;-0.698;2022-12-18T11:03:45;14.88;;;9.35;;
46717;SDS011;32448;44.960;-0.698;2022-12-18T11:06:27;15.00;;;8.95;;
46717;SDS011;32448;44.960;-0.698;2022-12-18T11:09:03;11.45;;;7.45;;
46717;SDS011;32448;44.960;-0.698;2022-12-18T11:11:54;12.25;;;8.02;;
46717;SDS011;32448;44.960;-0.698;2022-12-18T11:14:25;17.92;;;9.60;;
46717;SDS011;32448;44.960;-0.698;2022-12-18T11:16:55;14.40;;;9.18;;
46717;SDS011;32448;44.960;-0.698;2022-12-18T11:19:51;15.38;;;7.88;;
46717;SDS011;32448;44.960;-0.698;2022-12-18T11:22:25;12.38;;;8.13;;
46717;SDS011;32448;44.960;-0.698;2022-12-18T11:27:58;15.30;;;8.25;;
46717;SDS011;32448;44.960;-0.698;2022-12-18T11:30:35;9.27;;;5.90;;
46717;SDS011;32448;44.960;-0.698;2022-12-18T11:35:51;9.20;;;5.80;;
46717;SDS011;32448;44.960;-0.698;2022-12-18T11:38:24;9.48;;;6.13;;
46717;SDS011;32448;44.960;-0.698;2022-12-18T11:41:03;8.40;;;5.88;;
46717;SDS011;32448;44.960;-0.698;2022-12-18T11:44:28;8.57;;;4.95;;
46717;SDS011;32448;44.960;-0.698;2022-12-18T11:49:47;8.35;;;5.15;;
46717;SDS011;32448;44.960;-0.698;2022-12-18T11:52:24;9.30;;;5.32;;
46717;SDS011;32448;44.960;-0.698;2022-12-18T11:55:01;7.63;;;4.40;;
46717;SDS011;32448;44.960;-0.698;2022-12-18T12:00:33;8.45;;;4.60;;
46717;SDS011;32448;44.960;-0.698;2022-12-18T12:06:03;8.87;;;4.67;;
46717;SDS011;32448;44.960;-0.698;2022-12-18T12:12:28;7.28;;;4.35;;
46717;SDS011;32448;44.960;-0.698;2022-12-18T12:21:00;5.63;;;3.63;;
46717;SDS011;32448;44.960;-0.698;2022-12-18T12:26:43;8.10;;;4.10;;
46717;SDS011;32448;44.960;-0.698;2022-12-18T12:29:23;5.65;;;3.97;;
46717;SDS011;32448;44.960;-0.698;2022-12-18T12:37:53;5.78;;;3.85;;
46717;SDS011;32448;44.960;-0.698;2022-12-18T12:40:24;5.20;;;3.75;;
46717;SDS011;32448;44.960;-0.698;2022-12-18T12:45:56;6.32;;;3.45;;
46717;SDS011;32448;44.960;-0.698;2022-12-18T12:48:33;4.93;;;3.45;;
46717;SDS011;32448;44.960;-0.698;2022-12-18T12:51:11;6.85;;;3.65;;
46717;SDS011;32448;44.960;-0.698;2022-12-18T12:53:59;5.90;;;3.67;;
46717;SDS011;32448;44.960;-0.698;2022-12-18T12:56:48;6.53;;;3.83;;
46717;SDS011;32448;44.960;-0.698;2022-12-18T12:59:25;6.60;;;3.85;;
46717;SDS011;32448;44.960;-0.698;2022-12-18T13:10:49;7.03;;;3.88;;
46717;SDS011;32448;44.960;-0.698;2022-12-18T13:13:52;7.40;;;4.22;;
46717;SDS011;32448;44.960;-0.698;2022-12-18T13:16:25;6.55;;;3.60;;
46717;SDS011;32448;44.960;-0.698;2022-12-18T13:18:59;6.32;;;3.95;;
46717;SDS011;32448;44.960;-0.698;2022-12-18T13:21:31;7.60;;;4.20;;
46717;SDS011;32448;44.960;-0.698;2022-12-18T13:24:46;5.57;;;3.60;;
46717;SDS011;32448;44.960;-0.698;2022-12-18T13:26:53;5.57;;;4.10;;
46717;SDS011;32448;44.960;-0.698;2022-12-18T13:32:22;8.50;;;4.35;;
46717;SDS011;32448;44.960;-0.698;2022-12-18T13:36:00;8.20;;;3.65;;
46717;SDS011;32448;44.960;-0.698;2022-12-18T13:37:52;5.88;;;3.88;;
46717;SDS011;32448;44.960;-0.698;2022-12-18T13:46:02;6.63;;;4.20;;
46717;SDS011;32448;44.960;-0.698;2022-12-18T13:48:55;6.18;;;4.18;;
46717;SDS011;32448;44.960;-0.698;2022-12-18T13:51:25;9.35;;;3.92;;
46717;SDS011;32448;44.960;-0.698;2022-12-18T13:57:05;5.80;;;3.67;;
46717;SDS011;32448;44.960;-0.698;2022-12-18T13:59:51;7.72;;;3.88;;
46717;SDS011;32448;44.960;-0.698;2022-12-18T14:02:24;6.53;;;3.83;;
46717;SDS011;32448;44.960;-0.698;2022-12-18T14:04:55;7.15;;;3.95;;
46717;SDS011;32448;44.960;-0.698;2022-12-18T14:07:23;5.90;;;3.50;;
46717;SDS011;32448;44.960;-0.698;2022-12-18T14:10:00;5.53;;;3.50;;
46717;SDS011;32448;44.960;-0.698;2022-12-18T14:12:53;4.85;;;3.53;;
46717;SDS011;32448;44.960;-0.698;2022-12-18T14:15:36;7.55;;;3.63;;
46717;SDS011;32448;44.960;-0.698;2022-12-18T14:20:55;4.50;;;3.00;;
46717;SDS011;32448;44.960;-0.698;2022-12-18T14:23:28;5.93;;;3.80;;
46717;SDS011;32448;44.960;-0.698;2022-12-18T14:25:59;7.72;;;3.38;;
46717;SDS011;32448;44.960;-0.698;2022-12-18T14:28:31;5.30;;;3.28;;
46717;SDS011;32448;44.960;-0.698;2022-12-18T14:30:59;4.13;;;3.10;;
46717;SDS011;32448;44.960;-0.698;2022-12-18T14:33:27;4.97;;;2.92;;
46717;SDS011;32448;44.960;-0.698;2022-12-18T14:35:56;4.97;;;3.05;;
46717;SDS011;32448;44.960;-0.698;2022-12-18T14:38:36;4.30;;;3.25;;
46717;SDS011;32448;44.960;-0.698;2022-12-18T14:41:12;4.35;;;3.22;;
46717;SDS011;32448;44.960;-0.698;2022-12-18T14:43:41;7.78;;;3.65;;
46717;SDS011;32448;44.960;-0.698;2022-12-18T14:52:03;4.63;;;2.95;;
46717;SDS011;32448;44.960;-0.698;2022-12-18T14:54:34;6.65;;;3.50;;
46717;SDS011;32448;44.960;-0.698;2022-12-18T14:57:05;5.40;;;3.67;;
46717;SDS011;32448;44.960;-0.698;2022-12-18T14:59:45;8.02;;;3.63;;
46717;SDS011;32448;44.960;-0.698;2022-12-18T15:05:01;5.55;;;3.70;;
46717;SDS011;32448;44.960;-0.698;2022-12-18T15:07:51;6.68;;;3.83;;
46717;SDS011;32448;44.960;-0.698;2022-12-18T15:10:22;5.90;;;3.90;;
46717;SDS011;32448;44.960;-0.698;2022-12-18T15:18:12;6.88;;;4.10;;
46717;SDS011;32448;44.960;-0.698;2022-12-18T15:20:52;6.80;;;3.85;;
46717;SDS011;32448;44.960;-0.698;2022-12-18T15:23:23;10.45;;;3.83;;
46717;SDS011;32448;44.960;-0.698;2022-12-18T15:26:02;6.30;;;4.07;;
46717;SDS011;32448;44.960;-0.698;2022-12-18T15:33:42;5.82;;;4.07;;
46717;SDS011;32448;44.960;-0.698;2022-12-18T15:36:22;7.78;;;4.18;;
46717;SDS011;32448;44.960;-0.698;2022-12-18T15:38:53;7.18;;;4.90;;
46717;SDS011;32448;44.960;-0.698;2022-12-18T15:41:31;6.90;;;3.97;;
46717;SDS011;32448;44.960;-0.698;2022-12-18T15:44:20;5.88;;;3.92;;
46717;SDS011;32448;44.960;-0.698;2022-12-18T15:46:50;5.57;;;3.80;;
46717;SDS011;32448;44.960;-0.698;2022-12-18T15:49:21;8.50;;;4.65;;
46717;SDS011;32448;44.960;-0.698;2022-12-18T15:51:50;5.72;;;3.97;;
46717;SDS011;32448;44.960;-0.698;2022-12-18T15:54:20;6.93;;;4.15;;
46717;SDS011;32448;44.960;-0.698;2022-12-18T15:57:10;5.93;;;3.92;;
46717;SDS011;32448;44.960;-0.698;2022-12-18T15:59:51;26.15;;;4.72;;
46717;SDS011;32448;44.960;-0.698;2022-12-18T16:02:20;7.13;;;4.15;;
46717;SDS011;32448;44.960;-0.698;2022-12-18T16:04:50;7.88;;;4.38;;
46717;SDS011;32448;44.960;-0.698;2022-12-18T16:07:28;9.98;;;5.05;;
46717;SDS011;32448;44.960;-0.698;2022-12-18T16:09:56;8.45;;;4.10;;
46717;SDS011;32448;44.960;-0.698;2022-12-18T16:12:28;8.50;;;4.97;;
46717;SDS011;32448;44.960;-0.698;2022-12-18T16:14:55;7.05;;;4.85;;
46717;SDS011;32448;44.960;-0.698;2022-12-18T16:17:22;9.35;;;5.10;;
46717;SDS011;32448;44.960;-0.698;2022-12-18T16:19:50;7.22;;;4.50;;
46717;SDS011;32448;44.960;-0.698;2022-12-18T16:22:19;7.68;;;4.55;;
46717;SDS011;32448;44.960;-0.698;2022-12-18T16:24:54;7.45;;;4.60;;
46717;SDS011;32448;44.960;-0.698;2022-12-18T16:27:30;8.35;;;4.53;;
46717;SDS011;32448;44.960;-0.698;2022-12-18T16:29:58;9.27;;;5.13;;
46717;SDS011;32448;44.960;-0.698;2022-12-18T16:32:25;12.82;;;4.97;;
46717;SDS011;32448;44.960;-0.698;2022-12-18T16:34:59;8.40;;;5.35;;
46717;SDS011;32448;44.960;-0.698;2022-12-18T16:37:27;8.68;;;4.97;;
46717;SDS011;32448;44.960;-0.698;2022-12-18T16:39:55;8.93;;;5.18;;
46717;SDS011;32448;44.960;-0.698;2022-12-18T16:42:27;9.90;;;5.85;;
46717;SDS011;32448;44.960;-0.698;2022-12-18T16:44:55;7.18;;;5.00;;
46717;SDS011;32448;44.960;-0.698;2022-12-18T16:47:22;7.82;;;5.68;;
46717;SDS011;32448;44.960;-0.698;2022-12-18T16:49:50;7.50;;;4.95;;